createdAt,value
2023-05-16T00:00:16.519Z,10.15
2023-05-16T00:01:18.292Z,10.45
2023-05-16T00:02:19.833Z,9.98
2023-05-16T00:03:21.620Z,10.48
2023-05-16T00:04:23.763Z,10.35
2023-05-16T00:05:25.742Z,10.05
2023-05-16T00:06:27.281Z,9.45
2023-05-16T00:07:28.806Z,11.80
2023-05-16T00:08:30.285Z,10.50
2023-05-16T00:09:31.764Z,9.90
2023-05-16T00:10:33.307Z,11.98
2023-05-16T00:11:35.001Z,9.73
2023-05-16T00:12:37.462Z,9.75
2023-05-16T00:13:42.329Z,11.57
2023-05-16T00:14:43.846Z,12.85
2023-05-16T00:15:45.661Z,11.27
2023-05-16T00:16:47.895Z,12.18
2023-05-16T00:17:50.064Z,12.07
2023-05-16T00:18:52.569Z,11.30
2023-05-16T00:19:58.219Z,12.63
2023-05-16T00:20:59.977Z,13.55
2023-05-16T00:22:01.821Z,12.98
2023-05-16T00:23:03.889Z,11.35
2023-05-16T00:24:05.697Z,14.85
2023-05-16T00:25:09.399Z,14.65
2023-05-16T00:26:11.063Z,13.00
2023-05-16T00:27:15.804Z,12.57
2023-05-16T00:28:17.318Z,16.35
2023-05-16T00:29:18.791Z,13.73
2023-05-16T00:30:20.380Z,17.08
2023-05-16T00:31:22.182Z,20.23
2023-05-16T00:32:26.469Z,19.83
2023-05-16T00:33:27.999Z,18.05
2023-05-16T00:34:29.788Z,16.73
2023-05-16T00:35:31.545Z,17.30
2023-05-16T00:36:33.006Z,16.58
2023-05-16T00:37:34.515Z,18.52
2023-05-16T00:38:36.093Z,18.73
2023-05-16T00:39:37.794Z,15.48
2023-05-16T00:40:39.346Z,19.33
2023-05-16T00:41:41.101Z,19.40
2023-05-16T00:42:42.896Z,18.27
2023-05-16T00:43:45.289Z,15.70
2023-05-16T00:44:47.992Z,21.27
2023-05-16T00:45:50.731Z,18.77
2023-05-16T00:46:52.565Z,21.35
2023-05-16T00:47:54.827Z,20.77
2023-05-16T00:48:56.418Z,21.92
2023-05-16T00:49:58.684Z,19.25
2023-05-16T00:51:01.791Z,17.95
2023-05-16T00:52:04.088Z,20.77
2023-05-16T00:53:05.887Z,19.75
2023-05-16T00:54:07.415Z,19.10
2023-05-16T00:55:10.783Z,19.15
2023-05-16T00:56:12.363Z,21.20
2023-05-16T00:57:14.102Z,20.30
2023-05-16T00:58:16.331Z,21.83
2023-05-16T00:59:17.880Z,19.95
2023-05-16T01:00:19.996Z,20.15
2023-05-16T01:01:24.083Z,21.38
2023-05-16T01:02:29.193Z,21.42
2023-05-16T01:03:31.676Z,20.55
2023-05-16T01:04:34.591Z,20.73
2023-05-16T01:05:36.173Z,21.75
2023-05-16T01:06:37.792Z,19.33
2023-05-16T01:07:40.662Z,21.05
2023-05-16T01:08:42.877Z,22.30
2023-05-16T01:09:44.425Z,21.45
2023-05-16T01:11:10.043Z,21.25
2023-05-16T01:12:38.272Z,22.30
2023-05-16T01:13:44.691Z,19.48
2023-05-16T01:15:06.756Z,23.15
2023-05-16T01:16:22.284Z,26.52
2023-05-16T01:17:33.809Z,21.75
2023-05-16T01:18:44.604Z,23.80
2023-05-16T01:20:02.044Z,25.73
2023-05-16T01:21:13.433Z,27.27
2023-05-16T01:22:21.658Z,27.20
2023-05-16T01:23:43.520Z,25.67
2023-05-16T01:25:10.103Z,25.70
2023-05-16T01:26:23.009Z,23.17
2023-05-16T01:27:26.301Z,23.88
2023-05-16T01:28:28.438Z,27.48
2023-05-16T01:29:29.946Z,23.37
2023-05-16T01:30:41.189Z,27.70
2023-05-16T01:31:43.224Z,28.90
2023-05-16T01:32:45.194Z,30.43
2023-05-16T01:33:47.334Z,26.93
2023-05-16T01:34:52.018Z,29.70
2023-05-16T01:36:02.522Z,30.67
2023-05-16T01:37:16.268Z,28.92
2023-05-16T01:38:26.914Z,28.33
2023-05-16T01:39:56.659Z,30.25
2023-05-16T01:41:25.090Z,32.83
2023-05-16T01:42:30.394Z,31.38
2023-05-16T01:43:40.128Z,31.33
2023-05-16T01:45:08.577Z,30.52
2023-05-16T01:46:15.108Z,28.95
2023-05-16T01:47:19.368Z,31.15
2023-05-16T01:48:37.285Z,34.90
2023-05-16T01:49:46.400Z,32.13
2023-05-16T01:50:54.296Z,31.05
2023-05-16T01:52:01.573Z,25.10
2023-05-16T01:53:15.042Z,34.83
2023-05-16T01:54:19.025Z,28.90
2023-05-16T01:55:39.269Z,34.58
2023-05-16T01:56:49.961Z,34.00
2023-05-16T01:57:52.480Z,34.53
2023-05-16T01:58:55.436Z,33.28
2023-05-16T01:59:58.987Z,32.70
2023-05-16T02:01:04.149Z,33.55
2023-05-16T02:02:05.832Z,35.40
2023-05-16T02:03:08.094Z,38.15
2023-05-16T02:04:09.821Z,34.78
2023-05-16T02:05:11.382Z,31.70
2023-05-16T02:06:12.916Z,34.90
2023-05-16T02:07:15.113Z,36.10
2023-05-16T02:08:16.862Z,35.28
2023-05-16T02:09:18.732Z,34.15
2023-05-16T02:10:20.407Z,33.17
2023-05-16T02:11:23.286Z,33.30
2023-05-16T02:12:25.487Z,39.58
2023-05-16T02:13:27.554Z,37.30
2023-05-16T02:14:29.450Z,35.92
2023-05-16T02:15:31.139Z,32.50
2023-05-16T02:16:33.976Z,40.58
2023-05-16T02:17:35.777Z,37.60
2023-05-16T02:18:37.328Z,38.00
2023-05-16T02:19:39.807Z,38.05
2023-05-16T02:20:41.749Z,40.03
2023-05-16T02:21:43.498Z,37.60
2023-05-16T02:22:47.769Z,41.17
2023-05-16T02:23:49.403Z,41.05
2023-05-16T02:24:50.896Z,37.03
2023-05-16T02:25:53.446Z,36.67
2023-05-16T02:26:57.238Z,38.40
2023-05-16T02:27:58.716Z,42.33
2023-05-16T02:29:00.310Z,39.40
2023-05-16T02:30:02.158Z,39.58
2023-05-16T02:31:04.451Z,42.83
2023-05-16T02:32:06.341Z,39.90
2023-05-16T02:33:07.870Z,40.65
2023-05-16T02:34:09.412Z,42.42
2023-05-16T02:35:11.805Z,38.95
2023-05-16T02:36:13.945Z,42.35
2023-05-16T02:37:17.425Z,40.38
2023-05-16T02:38:20.955Z,43.30
2023-05-16T02:39:23.353Z,40.55
2023-05-16T02:40:26.198Z,43.10
2023-05-16T02:41:27.860Z,44.42
2023-05-16T02:42:29.687Z,45.47
2023-05-16T02:43:31.208Z,42.63
2023-05-16T02:44:32.718Z,45.70
2023-05-16T02:45:34.273Z,42.08
2023-05-16T02:46:36.514Z,45.00
2023-05-16T02:47:38.938Z,41.42
2023-05-16T02:48:40.647Z,43.83
2023-05-16T02:49:42.641Z,49.22
2023-05-16T02:50:44.244Z,44.58
2023-05-16T02:51:45.808Z,47.10
2023-05-16T02:52:47.603Z,43.10
2023-05-16T02:53:49.298Z,48.13
2023-05-16T02:55:04.744Z,43.58
2023-05-16T02:56:12.589Z,45.85
2023-05-16T02:57:15.216Z,47.83
2023-05-16T02:58:16.714Z,48.97
2023-05-16T02:59:18.213Z,45.50
2023-05-16T03:00:20.106Z,44.90
2023-05-16T03:01:21.966Z,49.95
2023-05-16T03:02:23.741Z,43.95
2023-05-16T03:03:25.504Z,41.50
2023-05-16T03:04:27.132Z,40.78
2023-05-16T03:05:29.201Z,42.05
2023-05-16T03:06:31.424Z,47.53
2023-05-16T03:07:34.721Z,43.13
2023-05-16T03:08:39.338Z,46.90
2023-05-16T03:09:40.925Z,52.20
2023-05-16T03:10:42.677Z,50.17
2023-05-16T03:11:44.146Z,49.10
2023-05-16T03:12:46.416Z,48.90
2023-05-16T03:13:48.558Z,49.95
2023-05-16T03:14:51.442Z,48.63
2023-05-16T03:15:53.260Z,50.97
2023-05-16T03:16:54.814Z,49.22
2023-05-16T03:17:56.408Z,56.42
2023-05-16T03:18:58.427Z,48.88
2023-05-16T03:20:00.213Z,47.90
2023-05-16T03:21:03.376Z,49.22
2023-05-16T03:22:05.271Z,51.60
2023-05-16T03:23:09.421Z,53.75
2023-05-16T03:24:11.310Z,54.47
2023-05-16T03:25:12.915Z,47.58
2023-05-16T03:26:15.839Z,49.08
2023-05-16T03:27:17.307Z,45.28
2023-05-16T03:28:18.847Z,53.42
2023-05-16T03:29:20.349Z,55.75
2023-05-16T03:30:22.931Z,56.88
2023-05-16T03:31:24.568Z,54.03
2023-05-16T03:32:26.103Z,58.15
2023-05-16T03:33:27.827Z,51.20
2023-05-16T03:34:29.471Z,54.28
2023-05-16T03:35:35.090Z,54.38
2023-05-16T03:36:36.670Z,53.00
2023-05-16T03:37:39.294Z,53.80
2023-05-16T03:38:40.922Z,51.28
2023-05-16T03:39:42.454Z,55.88
2023-05-16T03:40:44.677Z,53.03
2023-05-16T03:41:46.332Z,56.33
2023-05-16T03:42:48.097Z,53.67
2023-05-16T03:43:49.842Z,54.00
2023-05-16T03:44:51.612Z,54.13
2023-05-16T03:45:53.205Z,54.93
2023-05-16T03:46:56.058Z,62.67
2023-05-16T03:47:58.107Z,56.60
2023-05-16T03:48:59.589Z,59.72
2023-05-16T03:50:01.139Z,59.67
2023-05-16T03:51:02.612Z,53.15
2023-05-16T03:52:05.729Z,55.10
2023-05-16T03:53:07.247Z,57.03
2023-05-16T03:54:08.670Z,49.83
2023-05-16T03:55:10.620Z,54.67
2023-05-16T03:56:12.142Z,58.88
2023-05-16T03:57:13.969Z,59.00
2023-05-16T03:58:16.503Z,54.93
2023-05-16T03:59:18.043Z,55.67
2023-05-16T04:00:19.592Z,54.33
2023-05-16T04:01:21.089Z,57.38
2023-05-16T04:02:22.718Z,56.03
2023-05-16T04:03:28.491Z,58.85
2023-05-16T04:04:30.255Z,57.75
2023-05-16T04:05:31.903Z,58.65
2023-05-16T04:06:34.331Z,59.38
2023-05-16T04:07:38.693Z,55.95
2023-05-16T04:08:41.038Z,57.13
2023-05-16T04:09:42.518Z,64.45
2023-05-16T04:10:43.963Z,60.55
2023-05-16T04:11:45.751Z,55.38
2023-05-16T04:12:47.305Z,52.40
2023-05-16T04:13:48.839Z,56.30
2023-05-16T04:14:50.408Z,59.38
2023-05-16T04:15:51.948Z,55.50
2023-05-16T04:16:53.537Z,56.47
2023-05-16T04:17:55.103Z,54.10
2023-05-16T04:18:57.191Z,57.22
2023-05-16T04:19:58.826Z,58.22
2023-05-16T04:21:00.691Z,60.63
2023-05-16T04:22:02.413Z,48.80
2023-05-16T04:23:03.968Z,53.33
2023-05-16T04:24:05.929Z,55.08
2023-05-16T04:25:08.127Z,56.72
2023-05-16T04:26:09.782Z,51.45
2023-05-16T04:27:12.100Z,51.72
2023-05-16T04:28:13.563Z,50.78
2023-05-16T04:29:14.997Z,47.83
2023-05-16T04:30:16.707Z,52.38
2023-05-16T04:31:18.328Z,51.92
2023-05-16T04:32:19.942Z,54.95
2023-05-16T04:33:21.459Z,52.17
2023-05-16T04:34:28.108Z,52.15
2023-05-16T04:35:29.826Z,46.80
2023-05-16T04:36:31.613Z,50.90
2023-05-16T04:37:33.125Z,55.60
2023-05-16T04:38:34.761Z,56.85
2023-05-16T04:39:36.942Z,52.55
2023-05-16T04:40:38.670Z,55.28
2023-05-16T04:41:40.194Z,54.13
2023-05-16T04:42:41.855Z,47.00
2023-05-16T04:43:44.478Z,51.47
2023-05-16T04:44:47.674Z,51.72
2023-05-16T04:45:49.210Z,52.40
2023-05-16T04:46:51.205Z,47.92
2023-05-16T04:47:53.220Z,47.63
2023-05-16T04:48:54.762Z,53.85
2023-05-16T04:49:56.252Z,53.00
2023-05-16T04:50:57.865Z,55.42
2023-05-16T04:51:59.336Z,47.90
2023-05-16T04:53:00.806Z,53.60
2023-05-16T04:54:02.327Z,50.13
2023-05-16T04:55:04.291Z,48.53
2023-05-16T04:56:06.071Z,47.42
2023-05-16T04:57:07.674Z,49.33
2023-05-16T04:58:09.257Z,47.45
2023-05-16T04:59:11.024Z,46.70
2023-05-16T05:00:13.303Z,47.03
2023-05-16T05:01:15.100Z,45.03
2023-05-16T05:02:16.653Z,43.67
2023-05-16T05:03:18.659Z,52.37
2023-05-16T05:04:20.498Z,50.88
2023-05-16T05:05:22.151Z,50.05
2023-05-16T05:06:23.709Z,47.47
2023-05-16T05:07:28.429Z,49.67
2023-05-16T05:08:29.959Z,47.50
2023-05-16T05:09:31.674Z,46.83
2023-05-16T05:10:33.133Z,47.35
2023-05-16T05:11:34.642Z,47.25
2023-05-16T05:12:36.842Z,48.95
2023-05-16T05:13:38.310Z,45.95
2023-05-16T05:14:39.878Z,48.00
2023-05-16T05:15:41.386Z,46.45
2023-05-16T05:16:42.845Z,48.88
2023-05-16T05:17:44.484Z,48.00
2023-05-16T05:18:46.100Z,46.15
2023-05-16T05:19:48.418Z,46.40
2023-05-16T05:20:50.734Z,48.15
2023-05-16T05:21:52.211Z,45.08
2023-05-16T05:22:53.674Z,48.22
2023-05-16T05:23:55.285Z,45.05
2023-05-16T05:24:56.804Z,50.40
2023-05-16T05:25:58.282Z,47.45
2023-05-16T05:26:59.858Z,40.65
2023-05-16T05:28:01.458Z,46.70
2023-05-16T05:29:05.701Z,47.42
2023-05-16T05:30:08.253Z,47.78
2023-05-16T05:31:09.985Z,50.75
2023-05-16T05:32:11.795Z,43.08
2023-05-16T05:33:16.375Z,47.78
2023-05-16T05:34:18.115Z,42.92
2023-05-16T05:35:19.563Z,45.63
2023-05-16T05:36:21.268Z,49.15
2023-05-16T05:37:22.746Z,47.13
2023-05-16T05:38:24.333Z,43.92
2023-05-16T05:39:26.307Z,46.63
2023-05-16T05:40:27.860Z,47.08
2023-05-16T05:41:29.676Z,45.00
2023-05-16T05:42:31.175Z,44.72
2023-05-16T05:43:32.848Z,42.10
2023-05-16T05:44:35.077Z,47.45
2023-05-16T05:45:37.519Z,44.88
2023-05-16T05:46:39.513Z,43.63
2023-05-16T05:47:41.324Z,44.58
2023-05-16T05:48:42.948Z,45.08
2023-05-16T05:49:44.522Z,44.70
2023-05-16T05:50:46.200Z,43.58
2023-05-16T05:51:47.726Z,41.97
2023-05-16T05:52:49.253Z,42.05
2023-05-16T05:53:50.702Z,46.60
2023-05-16T05:54:52.265Z,41.80
2023-05-16T05:55:53.846Z,43.67
2023-05-16T05:56:55.370Z,40.90
2023-05-16T05:57:56.854Z,45.95
2023-05-16T05:58:58.465Z,43.95
2023-05-16T05:59:59.924Z,44.65
2023-05-16T06:01:02.010Z,44.17
2023-05-16T06:02:03.936Z,40.90
2023-05-16T06:03:05.982Z,40.13
2023-05-16T06:04:08.008Z,44.30
2023-05-16T06:05:09.730Z,41.22
2023-05-16T06:06:11.338Z,42.30
2023-05-16T06:07:13.052Z,41.65
2023-05-16T06:08:15.115Z,43.67
2023-05-16T06:09:16.866Z,45.97
2023-05-16T06:10:18.386Z,43.08
2023-05-16T06:11:19.928Z,46.85
2023-05-16T06:12:21.498Z,41.95
2023-05-16T06:13:23.006Z,41.97
2023-05-16T06:14:24.441Z,42.50
2023-05-16T06:15:26.949Z,38.73
2023-05-16T06:16:28.817Z,47.47
2023-05-16T06:17:30.629Z,43.95
2023-05-16T06:18:32.212Z,41.35
2023-05-16T06:19:33.733Z,46.30
2023-05-16T06:20:35.219Z,39.38
2023-05-16T06:21:37.305Z,45.15
2023-05-16T06:22:39.078Z,40.58
2023-05-16T06:23:40.558Z,38.57
2023-05-16T06:24:42.126Z,40.70
2023-05-16T06:25:43.596Z,33.50
2023-05-16T06:26:49.575Z,39.60
2023-05-16T06:27:51.055Z,42.60
2023-05-16T06:28:52.542Z,40.22
2023-05-16T06:29:54.172Z,40.65
2023-05-16T06:30:55.865Z,36.60
2023-05-16T06:31:57.484Z,39.75
2023-05-16T06:32:59.065Z,41.55
2023-05-16T06:34:00.807Z,37.72
2023-05-16T06:35:02.321Z,38.30
2023-05-16T06:36:04.706Z,40.40
2023-05-16T06:37:06.322Z,38.20
2023-05-16T06:38:07.863Z,39.42
2023-05-16T06:39:09.346Z,36.00
2023-05-16T06:40:11.551Z,37.28
2023-05-16T06:41:13.100Z,32.88
2023-05-16T06:42:15.144Z,33.67
2023-05-16T06:43:17.750Z,34.42
2023-05-16T06:44:19.348Z,35.63
2023-05-16T06:45:20.992Z,34.08
2023-05-16T06:46:23.087Z,31.95
2023-05-16T06:47:24.960Z,34.03
2023-05-16T06:48:26.856Z,32.33
2023-05-16T06:49:28.650Z,29.70
2023-05-16T06:50:30.355Z,30.42
2023-05-16T06:51:31.885Z,30.60
2023-05-16T06:52:33.434Z,30.65
2023-05-16T06:53:34.953Z,31.73
2023-05-16T06:54:36.710Z,26.50
2023-05-16T06:55:38.388Z,29.70
2023-05-16T06:56:39.906Z,30.98
2023-05-16T06:57:41.519Z,29.08
2023-05-16T06:58:43.108Z,30.00
2023-05-16T06:59:44.663Z,27.40
2023-05-16T07:00:46.526Z,29.55
2023-05-16T07:01:48.127Z,27.00
2023-05-16T07:02:50.476Z,29.88
2023-05-16T07:03:52.466Z,28.98
2023-05-16T07:04:55.476Z,34.80
2023-05-16T07:05:58.236Z,32.53
2023-05-16T07:06:59.874Z,28.45
2023-05-16T07:08:01.629Z,28.05
2023-05-16T07:09:03.178Z,27.30
2023-05-16T07:10:05.293Z,27.73
2023-05-16T07:11:06.858Z,26.73
2023-05-16T07:12:08.698Z,27.85
2023-05-16T07:13:10.958Z,25.27
2023-05-16T07:14:12.890Z,25.80
2023-05-16T07:15:14.848Z,26.15
2023-05-16T07:16:16.441Z,26.23
2023-05-16T07:17:17.984Z,26.73
2023-05-16T07:18:19.645Z,24.13
2023-05-16T07:19:21.309Z,26.60
2023-05-16T07:20:23.218Z,25.35
2023-05-16T07:21:25.061Z,24.40
2023-05-16T07:22:26.632Z,26.50
2023-05-16T07:23:28.243Z,23.83
2023-05-16T07:24:29.813Z,23.38
2023-05-16T07:25:31.962Z,25.85
2023-05-16T07:26:33.478Z,27.17
2023-05-16T07:27:35.006Z,26.57
2023-05-16T07:28:36.602Z,26.95
2023-05-16T07:29:38.860Z,26.52
2023-05-16T07:30:40.420Z,25.98
2023-05-16T07:31:42.018Z,24.98
2023-05-16T07:32:43.713Z,25.70
2023-05-16T07:33:49.193Z,22.50
2023-05-16T07:34:50.878Z,23.77
2023-05-16T07:35:58.240Z,27.15
2023-05-16T07:37:07.657Z,22.90
2023-05-16T07:38:09.171Z,28.23
2023-05-16T07:39:10.726Z,24.27
2023-05-16T07:40:12.845Z,24.95
2023-05-16T07:41:14.659Z,23.55
2023-05-16T07:42:16.532Z,23.48
2023-05-16T07:43:18.164Z,26.73
2023-05-16T07:44:19.690Z,25.85
2023-05-16T07:45:21.379Z,24.50
2023-05-16T07:46:23.411Z,22.40
2023-05-16T07:47:25.365Z,28.02
2023-05-16T07:48:27.018Z,23.58
2023-05-16T07:49:28.577Z,24.60
2023-05-16T07:50:30.084Z,24.90
2023-05-16T07:51:31.980Z,26.70
2023-05-16T07:52:33.563Z,23.52
2023-05-16T07:53:35.100Z,26.17
2023-05-16T07:54:38.003Z,22.63
2023-05-16T07:55:41.653Z,21.38
2023-05-16T07:56:43.378Z,21.85
2023-05-16T07:57:44.955Z,22.60
2023-05-16T07:58:49.027Z,18.98
2023-05-16T07:59:52.375Z,19.92
2023-05-16T08:00:54.233Z,19.35
2023-05-16T08:01:56.534Z,19.50
2023-05-16T08:02:58.415Z,19.65
2023-05-16T08:04:00.508Z,18.77
2023-05-16T08:05:02.095Z,17.83
2023-05-16T08:06:03.803Z,16.67
2023-05-16T08:07:05.912Z,15.75
2023-05-16T08:08:07.742Z,15.45
2023-05-16T08:09:09.579Z,14.55
2023-05-16T08:10:13.319Z,13.73
2023-05-16T08:11:15.314Z,15.65
2023-05-16T08:12:16.946Z,14.40
2023-05-16T08:13:18.579Z,14.47
2023-05-16T08:14:20.090Z,15.20
2023-05-16T08:15:21.683Z,15.27
2023-05-16T08:16:23.466Z,16.70
2023-05-16T08:17:25.335Z,20.65
2023-05-16T08:18:27.242Z,16.80
2023-05-16T08:19:29.630Z,19.30
2023-05-16T08:20:31.197Z,20.10
2023-05-16T08:21:33.545Z,19.65
2023-05-16T08:22:35.371Z,18.67
2023-05-16T08:23:36.930Z,18.02
2023-05-16T08:24:38.526Z,19.50
2023-05-16T08:25:40.219Z,18.88
2023-05-16T08:26:41.791Z,22.50
2023-05-16T08:27:45.899Z,19.35
2023-05-16T08:28:47.808Z,18.80
2023-05-16T08:29:49.310Z,20.52
2023-05-16T08:30:51.034Z,18.65
2023-05-16T08:31:52.617Z,18.90
2023-05-16T08:32:54.301Z,16.80
2023-05-16T08:33:55.982Z,18.53
2023-05-16T08:34:57.500Z,18.92
2023-05-16T08:35:59.299Z,19.23
2023-05-16T08:37:01.083Z,19.17
2023-05-16T08:38:05.823Z,17.42
2023-05-16T08:39:07.714Z,17.85
2023-05-16T08:40:10.867Z,19.02
2023-05-16T08:41:12.885Z,20.35
2023-05-16T08:42:14.878Z,19.10
2023-05-16T08:43:16.797Z,20.02
2023-05-16T08:44:22.144Z,19.92
2023-05-16T08:45:24.595Z,19.77
2023-05-16T08:46:29.160Z,20.88
2023-05-16T08:47:32.191Z,18.33
2023-05-16T08:48:34.756Z,21.27
2023-05-16T08:49:39.249Z,19.10
2023-05-16T08:50:42.783Z,20.00
2023-05-16T08:51:49.221Z,22.53
2023-05-16T08:52:53.264Z,22.05
2023-05-16T08:54:01.434Z,22.65
2023-05-16T08:55:11.414Z,22.02
2023-05-16T08:56:14.607Z,20.65
2023-05-16T08:57:17.663Z,23.55
2023-05-16T08:58:19.750Z,23.38
2023-05-16T08:59:21.395Z,22.42
2023-05-16T09:00:23.776Z,22.10
2023-05-16T09:01:25.473Z,22.38
2023-05-16T09:02:28.567Z,22.05
2023-05-16T09:03:30.706Z,21.83
2023-05-16T09:04:32.556Z,20.05
2023-05-16T09:05:34.821Z,22.30
2023-05-16T09:06:36.978Z,23.45
2023-05-16T09:07:38.963Z,20.30
2023-05-16T09:08:41.860Z,22.40
2023-05-16T09:09:43.378Z,19.85
2023-05-16T09:10:44.935Z,22.35
2023-05-16T09:11:46.580Z,20.58
2023-05-16T09:12:48.153Z,20.55
2023-05-16T09:13:50.036Z,19.70
2023-05-16T09:14:52.284Z,23.33
2023-05-16T09:16:16.493Z,19.55
2023-05-16T09:17:20.534Z,21.98
2023-05-16T09:18:27.245Z,22.23
2023-05-16T09:19:37.146Z,20.55
2023-05-16T09:20:46.680Z,21.25
2023-05-16T09:21:48.332Z,20.38
2023-05-16T09:22:52.757Z,22.13
2023-05-16T09:23:54.973Z,21.15
2023-05-16T09:24:59.863Z,20.80
2023-05-16T09:26:01.584Z,23.45
2023-05-16T09:27:08.968Z,22.05
2023-05-16T09:28:12.243Z,20.67
2023-05-16T09:29:14.781Z,22.23
2023-05-16T09:30:19.153Z,23.25
2023-05-16T09:31:26.688Z,20.13
2023-05-16T09:32:28.525Z,20.23
2023-05-16T09:33:30.368Z,21.80
2023-05-16T09:34:32.388Z,20.05
2023-05-16T09:36:39.212Z,20.83
2023-05-16T09:37:48.650Z,24.55
2023-05-16T09:38:52.237Z,22.40
2023-05-16T09:39:55.016Z,21.00
2023-05-16T09:40:57.628Z,21.45
2023-05-16T09:41:59.733Z,22.85
2023-05-16T09:43:06.198Z,20.88
2023-05-16T09:44:10.898Z,21.65
2023-05-16T09:45:14.149Z,20.55
2023-05-16T09:46:16.361Z,20.10
2023-05-16T09:47:19.231Z,21.88
2023-05-16T09:48:21.827Z,20.05
2023-05-16T09:49:24.601Z,20.92
2023-05-16T09:50:26.397Z,23.83
2023-05-16T09:51:28.651Z,20.90
2023-05-16T09:52:30.480Z,21.70
2023-05-16T09:53:33.524Z,28.45
2023-05-16T09:54:35.589Z,21.17
2023-05-16T09:55:37.138Z,21.58
2023-05-16T09:56:50.042Z,21.83
2023-05-16T09:57:51.592Z,20.65
2023-05-16T09:58:53.486Z,19.15
2023-05-16T09:59:55.061Z,21.33
2023-05-16T10:00:58.092Z,20.33
2023-05-16T10:02:00.488Z,21.73
2023-05-16T10:03:05.160Z,20.48
2023-05-16T10:04:10.525Z,21.70
2023-05-16T10:05:12.185Z,21.50
2023-05-16T10:06:14.669Z,20.88
2023-05-16T10:07:17.479Z,19.58
2023-05-16T10:08:23.152Z,19.65
2023-05-16T10:09:25.315Z,20.65
2023-05-16T10:10:28.598Z,20.13
2023-05-16T10:11:31.697Z,18.08
2023-05-16T10:12:34.241Z,19.08
2023-05-16T10:13:36.721Z,17.95
2023-05-16T10:14:41.201Z,16.65
2023-05-16T10:15:43.287Z,18.38
2023-05-16T10:16:48.510Z,19.27
2023-05-16T10:17:54.946Z,18.50
2023-05-16T10:18:57.037Z,20.00
2023-05-16T10:20:02.030Z,21.73
2023-05-16T10:21:11.831Z,18.65
2023-05-16T10:22:14.149Z,20.33
2023-05-16T10:23:19.643Z,18.35
2023-05-16T10:24:29.141Z,19.70
2023-05-16T10:25:41.105Z,18.38
2023-05-16T10:26:43.000Z,19.75
2023-05-16T10:27:44.977Z,18.73
2023-05-16T10:28:47.644Z,19.02
2023-05-16T10:29:54.668Z,20.70
2023-05-16T10:30:57.487Z,20.20
2023-05-16T10:31:59.612Z,21.95
2023-05-16T10:33:02.158Z,21.63
2023-05-16T10:34:04.004Z,20.88
2023-05-16T10:35:06.282Z,22.05
2023-05-16T10:36:12.029Z,22.58
2023-05-16T10:37:13.651Z,21.33
2023-05-16T10:38:17.725Z,20.77
2023-05-16T10:39:20.035Z,22.85
2023-05-16T10:40:22.522Z,22.02
2023-05-16T10:41:25.085Z,23.77
2023-05-16T10:42:26.669Z,21.58
2023-05-16T10:43:31.197Z,23.80
2023-05-16T10:44:36.210Z,23.10
2023-05-16T10:45:44.277Z,23.40
2023-05-16T10:46:47.386Z,21.65
2023-05-16T10:47:56.788Z,21.77
2023-05-16T10:48:58.831Z,23.25
2023-05-16T10:50:00.590Z,23.60
2023-05-16T10:51:03.871Z,26.23
2023-05-16T10:52:08.203Z,23.38
2023-05-16T10:53:28.474Z,24.90
2023-05-16T10:54:40.413Z,22.10
2023-05-16T10:56:07.174Z,24.08
2023-05-16T10:57:12.067Z,25.17
2023-05-16T10:58:19.447Z,24.02
2023-05-16T10:59:25.994Z,22.30
2023-05-16T11:00:28.889Z,22.40
2023-05-16T11:01:36.310Z,21.15
2023-05-16T11:02:41.827Z,23.77
2023-05-16T11:03:59.317Z,23.23
2023-05-16T11:05:02.808Z,20.33
2023-05-16T11:06:05.891Z,24.23
2023-05-16T11:07:07.946Z,24.00
2023-05-16T11:08:09.461Z,20.48
2023-05-16T11:09:11.509Z,21.20
2023-05-16T11:10:16.796Z,22.58
2023-05-16T11:11:52.527Z,21.02
2023-05-16T11:12:55.541Z,21.63
2023-05-16T11:13:57.041Z,22.45
2023-05-16T11:14:58.879Z,23.50
2023-05-16T11:16:30.207Z,22.13
2023-05-16T11:17:41.119Z,20.65
2023-05-16T11:18:51.530Z,22.85
2023-05-16T11:19:59.355Z,22.90
2023-05-16T11:21:04.363Z,19.63
2023-05-16T11:22:11.717Z,21.63
2023-05-16T11:23:19.109Z,19.08
2023-05-16T11:24:32.102Z,20.05
2023-05-16T11:25:41.298Z,19.65
2023-05-16T11:26:43.288Z,19.20
2023-05-16T11:27:46.637Z,20.73
2023-05-16T11:28:52.179Z,22.80
2023-05-16T11:29:56.556Z,22.95
2023-05-16T11:31:00.090Z,19.38
2023-05-16T11:32:05.067Z,18.48
2023-05-16T11:33:07.448Z,20.00
2023-05-16T11:34:09.950Z,19.52
2023-05-16T11:35:15.088Z,18.48
2023-05-16T11:36:17.171Z,19.25
2023-05-16T11:37:20.210Z,18.92
2023-05-16T11:38:22.398Z,19.00
2023-05-16T11:39:25.175Z,18.25
2023-05-16T11:40:27.152Z,20.58
2023-05-16T11:41:28.925Z,15.82
2023-05-16T11:42:33.968Z,15.75
2023-05-16T11:43:43.705Z,15.30
2023-05-16T11:44:45.792Z,16.17
2023-05-16T11:45:54.502Z,14.95
2023-05-16T11:46:56.533Z,12.48
2023-05-16T11:48:02.701Z,14.32
2023-05-16T11:49:04.636Z,16.20
2023-05-16T11:50:13.913Z,14.18
2023-05-16T11:51:18.858Z,14.70
2023-05-16T11:52:21.577Z,13.48
2023-05-16T11:53:23.376Z,16.45
2023-05-16T11:54:25.612Z,14.90
2023-05-16T11:55:41.477Z,14.95
2023-05-16T11:56:44.147Z,15.50
2023-05-16T11:57:45.964Z,17.00
2023-05-16T11:58:47.813Z,15.15
2023-05-16T11:59:49.544Z,15.60
2023-05-16T12:00:51.648Z,14.77
2023-05-16T12:01:53.234Z,14.98
2023-05-16T12:03:01.366Z,14.90
2023-05-16T12:04:12.203Z,21.05
2023-05-16T12:05:15.364Z,14.88
2023-05-16T12:06:16.933Z,17.05
2023-05-16T12:07:18.634Z,17.88
2023-05-16T12:08:24.584Z,14.43
2023-05-16T12:09:26.463Z,15.07
2023-05-16T12:10:28.294Z,18.37
2023-05-16T12:11:30.607Z,15.18
2023-05-16T12:12:32.419Z,17.00
2023-05-16T12:13:34.340Z,16.40
2023-05-16T12:14:35.938Z,14.80
2023-05-16T12:15:37.535Z,15.57
2023-05-16T12:16:42.367Z,15.25
2023-05-16T12:17:44.379Z,15.68
2023-05-16T12:18:46.325Z,15.93
2023-05-16T12:19:48.433Z,15.77
2023-05-16T12:20:50.067Z,15.38
2023-05-16T12:21:54.916Z,12.50
2023-05-16T12:22:58.388Z,15.65
2023-05-16T12:24:00.351Z,16.23
2023-05-16T12:25:20.702Z,15.75
2023-05-16T12:26:27.063Z,13.63
2023-05-16T12:27:28.618Z,12.70
2023-05-16T12:28:34.774Z,14.23
2023-05-16T12:29:36.516Z,12.65
2023-05-16T12:30:41.805Z,11.18
2023-05-16T12:31:43.423Z,11.82
2023-05-16T12:32:45.642Z,11.43
2023-05-16T12:33:47.455Z,10.43
2023-05-16T12:34:53.350Z,11.27
2023-05-16T12:35:55.252Z,14.60
2023-05-16T12:36:56.986Z,12.65
2023-05-16T12:37:59.224Z,13.73
2023-05-16T12:39:03.869Z,10.53
2023-05-16T12:40:06.629Z,10.50
2023-05-16T12:41:08.319Z,10.93
2023-05-16T12:42:11.813Z,11.20
2023-05-16T12:43:17.523Z,11.48
2023-05-16T12:44:19.835Z,10.82
2023-05-16T12:45:27.824Z,9.30
2023-05-16T12:46:31.527Z,12.70
2023-05-16T12:47:38.666Z,10.85
2023-05-16T12:48:42.538Z,12.88
2023-05-16T12:49:46.067Z,13.95
2023-05-16T12:50:48.685Z,10.88
2023-05-16T12:51:55.487Z,10.87
2023-05-16T12:53:00.099Z,10.50
2023-05-16T12:55:13.113Z,11.07
2023-05-16T12:56:16.222Z,11.63
2023-05-16T12:57:17.778Z,12.32
2023-05-16T12:58:19.802Z,9.45
2023-05-16T12:59:21.436Z,11.63
2023-05-16T13:00:23.727Z,11.80
2023-05-16T13:01:25.550Z,12.35
2023-05-16T13:02:27.314Z,11.82
2023-05-16T13:03:29.036Z,11.65
2023-05-16T13:04:30.966Z,10.00
2023-05-16T13:05:32.546Z,13.27
2023-05-16T13:06:48.987Z,10.32
2023-05-16T13:07:56.375Z,10.48
2023-05-16T13:08:58.089Z,11.38
2023-05-16T13:09:59.685Z,10.43
2023-05-16T13:11:01.517Z,11.52
2023-05-16T13:12:03.082Z,9.52
2023-05-16T13:13:04.694Z,9.52
2023-05-16T13:14:06.354Z,11.00
2023-05-16T13:15:10.448Z,8.05
2023-05-16T13:16:12.127Z,6.63
2023-05-16T13:17:13.749Z,7.22
2023-05-16T13:18:15.324Z,6.68
2023-05-16T13:19:17.387Z,5.97
2023-05-16T13:20:20.206Z,6.28
2023-05-16T13:21:22.632Z,5.43
2023-05-16T13:22:24.199Z,6.80
2023-05-16T13:23:27.090Z,5.20
2023-05-16T13:24:28.669Z,6.40
2023-05-16T13:25:30.436Z,6.25
2023-05-16T13:26:32.241Z,6.32
2023-05-16T13:27:34.024Z,6.10
2023-05-16T13:28:36.371Z,8.40
2023-05-16T13:29:38.178Z,6.53
2023-05-16T13:30:39.690Z,6.93
2023-05-16T13:31:41.296Z,7.75
2023-05-16T13:32:42.889Z,8.13
2023-05-16T13:33:45.056Z,8.80
2023-05-16T13:34:46.620Z,7.03
2023-05-16T13:35:48.271Z,7.55
2023-05-16T13:36:54.289Z,8.55
2023-05-16T13:37:56.149Z,6.95
2023-05-16T13:38:57.648Z,10.07